<?xml version="1.0" encoding="utf-8"?>
<gpx xmlns:xsi="http://www.w3.org/2001/XMLSchema-instance" xmlns:xsd="http://www.w3.org/2001/XMLSchema" version="1.1" creator="Shapelink.com" xmlns="http://www.topografix.com/GPX/1/1" xmlns:gpxtpx="http://www.garmin.com/xmlschemas/TrackPointExtension/v1">
  <metadata>
    <name>Löpning 10.01 km, 2019-04-18</name>
    <desc></desc>
    <author><name>Marian Moron</name></author> 
    <time>2019-04-18T22:42:27Z</time>
  </metadata>
  <trk>
    <name>Löpning 10.01 km, 2019-04-18</name>
    <trkseg>
      <trkpt lat="51.229723027246" lon="4.457774207822">
        <ele>0.6</ele>
        <time>2019-04-18T22:42:27Z</time>
      </trkpt>
      <trkpt lat="51.229782371098" lon="4.457765658284">
        <ele>3.6</ele>
        <time>2019-04-18T22:42:29Z</time>
      </trkpt>
      <trkpt lat="51.229841379674" lon="4.458047876857">
        <ele>2.2</ele>
        <time>2019-04-18T22:42:34Z</time>
      </trkpt>
      <trkpt lat="51.229895945843" lon="4.458332945276">
        <ele>0</ele>
        <time>2019-04-18T22:42:41Z</time>
      </trkpt>
      <trkpt lat="51.229960905568" lon="4.458604602655">
        <ele>0</ele>
        <time>2019-04-18T22:42:48Z</time>
      </trkpt>
      <trkpt lat="51.23007976091" lon="4.458791183749">
        <ele>0.4</ele>
        <time>2019-04-18T22:42:57Z</time>
      </trkpt>
      <trkpt lat="51.230277825207" lon="4.458743658376">
        <ele>0</ele>
        <time>2019-04-18T22:43:06Z</time>
      </trkpt>
      <trkpt lat="51.230392321961" lon="4.458821442408">
        <ele>0</ele>
        <time>2019-04-18T22:43:12Z</time>
      </trkpt>
      <trkpt lat="51.230456024401" lon="4.459127046482">
        <ele>0</ele>
        <time>2019-04-18T22:43:20Z</time>
      </trkpt>
      <trkpt lat="51.230507153991" lon="4.459414461833">
        <ele>0.6</ele>
        <time>2019-04-18T22:43:27Z</time>
      </trkpt>
      <trkpt lat="51.230585357118" lon="4.459677150579">
        <ele>0.8</ele>
        <time>2019-04-18T22:43:35Z</time>
      </trkpt>
      <trkpt lat="51.230619639089" lon="4.459677821131">
        <ele>1</ele>
        <time>2019-04-18T22:43:38Z</time>
      </trkpt>
      <trkpt lat="51.230660878037" lon="4.459699194976">
        <ele>0.8</ele>
        <time>2019-04-18T22:43:41Z</time>
      </trkpt>
      <trkpt lat="51.230856092488" lon="4.459635660174">
        <ele>0</ele>
        <time>2019-04-18T22:43:49Z</time>
      </trkpt>
      <trkpt lat="51.231044349962" lon="4.459600875289">
        <ele>0</ele>
        <time>2019-04-18T22:43:56Z</time>
      </trkpt>
      <trkpt lat="51.231245096467" lon="4.459576064865">
        <ele>0</ele>
        <time>2019-04-18T22:44:03Z</time>
      </trkpt>
      <trkpt lat="51.231428324801" lon="4.45956223473">
        <ele>0</ele>
        <time>2019-04-18T22:44:10Z</time>
      </trkpt>
      <trkpt lat="51.231614319162" lon="4.459575226675">
        <ele>0</ele>
        <time>2019-04-18T22:44:17Z</time>
      </trkpt>
      <trkpt lat="51.231735856712" lon="4.459373306704">
        <ele>0</ele>
        <time>2019-04-18T22:44:24Z</time>
      </trkpt>
      <trkpt lat="51.231893520251" lon="4.459252272068">
        <ele>0</ele>
        <time>2019-04-18T22:44:31Z</time>
      </trkpt>
      <trkpt lat="51.232078760241" lon="4.459223941246">
        <ele>0</ele>
        <time>2019-04-18T22:44:40Z</time>
      </trkpt>
      <trkpt lat="51.232269532285" lon="4.459329720824">
        <ele>2.2</ele>
        <time>2019-04-18T22:44:48Z</time>
      </trkpt>
      <trkpt lat="51.232464495279" lon="4.459263168538">
        <ele>1.8</ele>
        <time>2019-04-18T22:44:56Z</time>
      </trkpt>
      <trkpt lat="51.232645376681" lon="4.459191000379">
        <ele>0.6</ele>
        <time>2019-04-18T22:45:03Z</time>
      </trkpt>
      <trkpt lat="51.232696087176" lon="4.459201729211">
        <ele>0.2</ele>
        <time>2019-04-18T22:45:05Z</time>
      </trkpt>
      <trkpt lat="51.232803375496" lon="4.459482690499">
        <ele>0</ele>
        <time>2019-04-18T22:45:12Z</time>
      </trkpt>
      <trkpt lat="51.232867077936" lon="4.459757784457">
        <ele>0</ele>
        <time>2019-04-18T22:45:19Z</time>
      </trkpt>
      <trkpt lat="51.232942431217" lon="4.460055341907">
        <ele>1</ele>
        <time>2019-04-18T22:45:27Z</time>
      </trkpt>
      <trkpt lat="51.233004373458" lon="4.460358850506">
        <ele>0.8</ele>
        <time>2019-04-18T22:45:35Z</time>
      </trkpt>
      <trkpt lat="51.23307796654" lon="4.4606543963">
        <ele>3.4</ele>
        <time>2019-04-18T22:45:42Z</time>
      </trkpt>
      <trkpt lat="51.233169999802" lon="4.460933597389">
        <ele>8.2</ele>
        <time>2019-04-18T22:45:49Z</time>
      </trkpt>
      <trkpt lat="51.233201096651" lon="4.4612243655">
        <ele>10.4</ele>
        <time>2019-04-18T22:45:56Z</time>
      </trkpt>
      <trkpt lat="51.233243676703" lon="4.461516642353">
        <ele>12.2</ele>
        <time>2019-04-18T22:46:03Z</time>
      </trkpt>
      <trkpt lat="51.233282317262" lon="4.461809338301">
        <ele>13.2</ele>
        <time>2019-04-18T22:46:10Z</time>
      </trkpt>
      <trkpt lat="51.233323053296" lon="4.462107398665">
        <ele>13.4</ele>
        <time>2019-04-18T22:46:17Z</time>
      </trkpt>
      <trkpt lat="51.233341744933" lon="4.462405878124">
        <ele>11</ele>
        <time>2019-04-18T22:46:25Z</time>
      </trkpt>
      <trkpt lat="51.233383989709" lon="4.462706704515">
        <ele>10.2</ele>
        <time>2019-04-18T22:46:34Z</time>
      </trkpt>
      <trkpt lat="51.233415589472" lon="4.463007363268">
        <ele>8.6</ele>
        <time>2019-04-18T22:46:43Z</time>
      </trkpt>
      <trkpt lat="51.233459091533" lon="4.463296454999">
        <ele>7</ele>
        <time>2019-04-18T22:46:51Z</time>
      </trkpt>
      <trkpt lat="51.233519273575" lon="4.463608345498">
        <ele>4.2</ele>
        <time>2019-04-18T22:46:59Z</time>
      </trkpt>
      <trkpt lat="51.233539473954" lon="4.463914536305">
        <ele>3.8</ele>
        <time>2019-04-18T22:47:07Z</time>
      </trkpt>
      <trkpt lat="51.233574342658" lon="4.464217709628">
        <ele>3</ele>
        <time>2019-04-18T22:47:15Z</time>
      </trkpt>
      <trkpt lat="51.2336261428" lon="4.46449749745">
        <ele>1.8</ele>
        <time>2019-04-18T22:47:23Z</time>
      </trkpt>
      <trkpt lat="51.233695377294" lon="4.464772339951">
        <ele>3.4</ele>
        <time>2019-04-18T22:47:31Z</time>
      </trkpt>
      <trkpt lat="51.233784393072" lon="4.465029999557">
        <ele>5.4</ele>
        <time>2019-04-18T22:47:38Z</time>
      </trkpt>
      <trkpt lat="51.233904924794" lon="4.465292017751">
        <ele>11.2</ele>
        <time>2019-04-18T22:47:45Z</time>
      </trkpt>
      <trkpt lat="51.234013805675" lon="4.465538864706">
        <ele>19</ele>
        <time>2019-04-18T22:47:52Z</time>
      </trkpt>
      <trkpt lat="51.234135427044" lon="4.465794931751">
        <ele>27.2</ele>
        <time>2019-04-18T22:48:00Z</time>
      </trkpt>
      <trkpt lat="51.234114556113" lon="4.466100032911">
        <ele>27.4</ele>
        <time>2019-04-18T22:48:08Z</time>
      </trkpt>
      <trkpt lat="51.234183622969" lon="4.466390214289">
        <ele>30.4</ele>
        <time>2019-04-18T22:48:16Z</time>
      </trkpt>
      <trkpt lat="51.234242380088" lon="4.466664553876">
        <ele>32.8</ele>
        <time>2019-04-18T22:48:23Z</time>
      </trkpt>
      <trkpt lat="51.234330892952" lon="4.467077613908">
        <ele>34</ele>
        <time>2019-04-18T22:48:34Z</time>
      </trkpt>
      <trkpt lat="51.234387470777" lon="4.467388666217">
        <ele>33</ele>
        <time>2019-04-18T22:48:42Z</time>
      </trkpt>
      <trkpt lat="51.234350841874" lon="4.467700975811">
        <ele>25.6</ele>
        <time>2019-04-18T22:48:49Z</time>
      </trkpt>
      <trkpt lat="51.234334497169" lon="4.468036922363">
        <ele>18</ele>
        <time>2019-04-18T22:48:57Z</time>
      </trkpt>
      <trkpt lat="51.234394846849" lon="4.46833892222">
        <ele>15.8</ele>
        <time>2019-04-18T22:49:05Z</time>
      </trkpt>
      <trkpt lat="51.234430553743" lon="4.46864402338">
        <ele>15.8</ele>
        <time>2019-04-18T22:49:13Z</time>
      </trkpt>
      <trkpt lat="51.234468356112" lon="4.468946861427">
        <ele>18.2</ele>
        <time>2019-04-18T22:49:20Z</time>
      </trkpt>
      <trkpt lat="51.234542787384" lon="4.469226733068">
        <ele>22</ele>
        <time>2019-04-18T22:49:27Z</time>
      </trkpt>
      <trkpt lat="51.234621744882" lon="4.469525380165">
        <ele>26.4</ele>
        <time>2019-04-18T22:49:35Z</time>
      </trkpt>
      <trkpt lat="51.234683016571" lon="4.469805503263">
        <ele>29.8</ele>
        <time>2019-04-18T22:49:42Z</time>
      </trkpt>
      <trkpt lat="51.234676897784" lon="4.470109766233">
        <ele>25.4</ele>
        <time>2019-04-18T22:49:50Z</time>
      </trkpt>
      <trkpt lat="51.234634820646" lon="4.470427440243">
        <ele>16</ele>
        <time>2019-04-18T22:49:58Z</time>
      </trkpt>
      <trkpt lat="51.234648231686" lon="4.470750478669">
        <ele>11.4</ele>
        <time>2019-04-18T22:50:07Z</time>
      </trkpt>
      <trkpt lat="51.234693577765" lon="4.471041079142">
        <ele>11.6</ele>
        <time>2019-04-18T22:50:15Z</time>
      </trkpt>
      <trkpt lat="51.234731463953" lon="4.471344755379">
        <ele>10.6</ele>
        <time>2019-04-18T22:50:23Z</time>
      </trkpt>
      <trkpt lat="51.23477949224" lon="4.471657232611">
        <ele>10.8</ele>
        <time>2019-04-18T22:50:31Z</time>
      </trkpt>
      <trkpt lat="51.234826849975" lon="4.471963339599">
        <ele>12.8</ele>
        <time>2019-04-18T22:50:39Z</time>
      </trkpt>
      <trkpt lat="51.234854761702" lon="4.472262154334">
        <ele>14.4</ele>
        <time>2019-04-18T22:50:47Z</time>
      </trkpt>
      <trkpt lat="51.234903963455" lon="4.472570189159">
        <ele>12.2</ele>
        <time>2019-04-18T22:50:55Z</time>
      </trkpt>
      <trkpt lat="51.234968755542" lon="4.472847630049">
        <ele>10.6</ele>
        <time>2019-04-18T22:51:02Z</time>
      </trkpt>
      <trkpt lat="51.235019130761" lon="4.473127585509">
        <ele>9.6</ele>
        <time>2019-04-18T22:51:09Z</time>
      </trkpt>
      <trkpt lat="51.23507704969" lon="4.473432854307">
        <ele>9.8</ele>
        <time>2019-04-18T22:51:17Z</time>
      </trkpt>
      <trkpt lat="51.235130442393" lon="4.473744493349">
        <ele>9.4</ele>
        <time>2019-04-18T22:51:25Z</time>
      </trkpt>
      <trkpt lat="51.235178638318" lon="4.474052109079">
        <ele>7.6</ele>
        <time>2019-04-18T22:51:33Z</time>
      </trkpt>
      <trkpt lat="51.235217446515" lon="4.474352181099">
        <ele>7.2</ele>
        <time>2019-04-18T22:51:41Z</time>
      </trkpt>
      <trkpt lat="51.235268324648" lon="4.474640350821">
        <ele>5</ele>
        <time>2019-04-18T22:51:49Z</time>
      </trkpt>
      <trkpt lat="51.235346192499" lon="4.474938159728">
        <ele>3.4</ele>
        <time>2019-04-18T22:51:57Z</time>
      </trkpt>
      <trkpt lat="51.235423389798" lon="4.47520705108">
        <ele>3.4</ele>
        <time>2019-04-18T22:52:04Z</time>
      </trkpt>
      <trkpt lat="51.235489355351" lon="4.475478205545">
        <ele>4.6</ele>
        <time>2019-04-18T22:52:11Z</time>
      </trkpt>
      <trkpt lat="51.235564540994" lon="4.475778529022">
        <ele>6.8</ele>
        <time>2019-04-18T22:52:19Z</time>
      </trkpt>
      <trkpt lat="51.235633188755" lon="4.476081702345">
        <ele>4.6</ele>
        <time>2019-04-18T22:52:27Z</time>
      </trkpt>
      <trkpt lat="51.235685491811" lon="4.47636878242">
        <ele>7</ele>
        <time>2019-04-18T22:52:34Z</time>
      </trkpt>
      <trkpt lat="51.235763108205" lon="4.476650078984">
        <ele>10</ele>
        <time>2019-04-18T22:52:41Z</time>
      </trkpt>
      <trkpt lat="51.235813902519" lon="4.476929028616">
        <ele>6.8</ele>
        <time>2019-04-18T22:52:49Z</time>
      </trkpt>
      <trkpt lat="51.235877437321" lon="4.477231866663">
        <ele>3.8</ele>
        <time>2019-04-18T22:52:57Z</time>
      </trkpt>
      <trkpt lat="51.235934937155" lon="4.477526406629">
        <ele>5.6</ele>
        <time>2019-04-18T22:53:05Z</time>
      </trkpt>
      <trkpt lat="51.236011463902" lon="4.477796974361">
        <ele>9.2</ele>
        <time>2019-04-18T22:53:12Z</time>
      </trkpt>
      <trkpt lat="51.236074076695" lon="4.478066703903">
        <ele>12</ele>
        <time>2019-04-18T22:53:19Z</time>
      </trkpt>
      <trkpt lat="51.236114309815" lon="4.478353364883">
        <ele>14.2</ele>
        <time>2019-04-18T22:53:27Z</time>
      </trkpt>
      <trkpt lat="51.236148507967" lon="4.478644216813">
        <ele>12.8</ele>
        <time>2019-04-18T22:53:34Z</time>
      </trkpt>
      <trkpt lat="51.236145909578" lon="4.478952335457">
        <ele>9.6</ele>
        <time>2019-04-18T22:53:42Z</time>
      </trkpt>
      <trkpt lat="51.236135767479" lon="4.47926891982">
        <ele>9.8</ele>
        <time>2019-04-18T22:53:50Z</time>
      </trkpt>
      <trkpt lat="51.236134594013" lon="4.479563711243">
        <ele>11.8</ele>
        <time>2019-04-18T22:53:57Z</time>
      </trkpt>
      <trkpt lat="51.236115734738" lon="4.479867890394">
        <ele>14.2</ele>
        <time>2019-04-18T22:54:05Z</time>
      </trkpt>
      <trkpt lat="51.236095869635" lon="4.480162178903">
        <ele>14</ele>
        <time>2019-04-18T22:54:13Z</time>
      </trkpt>
      <trkpt lat="51.23608287769" lon="4.480472057746">
        <ele>11.8</ele>
        <time>2019-04-18T22:54:21Z</time>
      </trkpt>
      <trkpt lat="51.23605437923" lon="4.48095368172">
        <ele>6.6</ele>
        <time>2019-04-18T22:54:34Z</time>
      </trkpt>
      <trkpt lat="51.236045578235" lon="4.481258699061">
        <ele>4.8</ele>
        <time>2019-04-18T22:54:42Z</time>
      </trkpt>
      <trkpt lat="51.236042896027" lon="4.481571511569">
        <ele>5.6</ele>
        <time>2019-04-18T22:54:50Z</time>
      </trkpt>
      <trkpt lat="51.236011128626" lon="4.481872505598">
        <ele>7.2</ele>
        <time>2019-04-18T22:54:58Z</time>
      </trkpt>
      <trkpt lat="51.235991179704" lon="4.482174337817">
        <ele>9</ele>
        <time>2019-04-18T22:55:06Z</time>
      </trkpt>
      <trkpt lat="51.235996125025" lon="4.482495699863">
        <ele>9.6</ele>
        <time>2019-04-18T22:55:14Z</time>
      </trkpt>
      <trkpt lat="51.236008446418" lon="4.482802225946">
        <ele>6.6</ele>
        <time>2019-04-18T22:55:22Z</time>
      </trkpt>
      <trkpt lat="51.235996208844" lon="4.483107243287">
        <ele>5</ele>
        <time>2019-04-18T22:55:30Z</time>
      </trkpt>
      <trkpt lat="51.235988078401" lon="4.483424498202">
        <ele>4.8</ele>
        <time>2019-04-18T22:55:38Z</time>
      </trkpt>
      <trkpt lat="51.236001489441" lon="4.483716188322">
        <ele>6.4</ele>
        <time>2019-04-18T22:55:45Z</time>
      </trkpt>
      <trkpt lat="51.236016241585" lon="4.484022379129">
        <ele>7.6</ele>
        <time>2019-04-18T22:55:53Z</time>
      </trkpt>
      <trkpt lat="51.236048260443" lon="4.484307196091">
        <ele>9.4</ele>
        <time>2019-04-18T22:56:00Z</time>
      </trkpt>
      <trkpt lat="51.236017415051" lon="4.484592013053">
        <ele>9.8</ele>
        <time>2019-04-18T22:56:07Z</time>
      </trkpt>
      <trkpt lat="51.235986904935" lon="4.484897198032">
        <ele>8.2</ele>
        <time>2019-04-18T22:56:15Z</time>
      </trkpt>
      <trkpt lat="51.236016073947" lon="4.485189307247">
        <ele>7.2</ele>
        <time>2019-04-18T22:56:23Z</time>
      </trkpt>
      <trkpt lat="51.236059911284" lon="4.485479237168">
        <ele>7.2</ele>
        <time>2019-04-18T22:56:31Z</time>
      </trkpt>
      <trkpt lat="51.236060581836" lon="4.485796492083">
        <ele>10.2</ele>
        <time>2019-04-18T22:56:39Z</time>
      </trkpt>
      <trkpt lat="51.236058821637" lon="4.486105951831">
        <ele>9.6</ele>
        <time>2019-04-18T22:56:47Z</time>
      </trkpt>
      <trkpt lat="51.236059995103" lon="4.486410885353">
        <ele>9.6</ele>
        <time>2019-04-18T22:56:55Z</time>
      </trkpt>
      <trkpt lat="51.23604767371" lon="4.486724787508">
        <ele>8</ele>
        <time>2019-04-18T22:57:03Z</time>
      </trkpt>
      <trkpt lat="51.236067035899" lon="4.487049669952">
        <ele>5.6</ele>
        <time>2019-04-18T22:57:11Z</time>
      </trkpt>
      <trkpt lat="51.236084973165" lon="4.487366589591">
        <ele>6</ele>
        <time>2019-04-18T22:57:19Z</time>
      </trkpt>
      <trkpt lat="51.236105257363" lon="4.487665236688">
        <ele>6.2</ele>
        <time>2019-04-18T22:57:27Z</time>
      </trkpt>
      <trkpt lat="51.236117494937" lon="4.487979138843">
        <ele>5.4</ele>
        <time>2019-04-18T22:57:35Z</time>
      </trkpt>
      <trkpt lat="51.236120093326" lon="4.488270745144">
        <ele>5.8</ele>
        <time>2019-04-18T22:57:42Z</time>
      </trkpt>
      <trkpt lat="51.236126212113" lon="4.488564949834">
        <ele>5.6</ele>
        <time>2019-04-18T22:57:49Z</time>
      </trkpt>
      <trkpt lat="51.236142221542" lon="4.488889413183">
        <ele>6.8</ele>
        <time>2019-04-18T22:57:57Z</time>
      </trkpt>
      <trkpt lat="51.236151441632" lon="4.489183785511">
        <ele>8</ele>
        <time>2019-04-18T22:58:04Z</time>
      </trkpt>
      <trkpt lat="51.236141886266" lon="4.489485030997">
        <ele>8.4</ele>
        <time>2019-04-18T22:58:11Z</time>
      </trkpt>
      <trkpt lat="51.236106263191" lon="4.489769345045">
        <ele>7.6</ele>
        <time>2019-04-18T22:58:19Z</time>
      </trkpt>
      <trkpt lat="51.236085308441" lon="4.490088108702">
        <ele>9</ele>
        <time>2019-04-18T22:58:27Z</time>
      </trkpt>
      <trkpt lat="51.236025294037" lon="4.490390946749">
        <ele>8.6</ele>
        <time>2019-04-18T22:58:35Z</time>
      </trkpt>
      <trkpt lat="51.235974918818" lon="4.490685821991">
        <ele>7.8</ele>
        <time>2019-04-18T22:58:43Z</time>
      </trkpt>
      <trkpt lat="51.235916664613" lon="4.490997880128">
        <ele>9</ele>
        <time>2019-04-18T22:58:51Z</time>
      </trkpt>
      <trkpt lat="51.235844244997" lon="4.49129694632">
        <ele>9.6</ele>
        <time>2019-04-18T22:58:59Z</time>
      </trkpt>
      <trkpt lat="51.235763778757" lon="4.491568771337">
        <ele>10</ele>
        <time>2019-04-18T22:59:06Z</time>
      </trkpt>
      <trkpt lat="51.235686749096" lon="4.491832298273">
        <ele>10.6</ele>
        <time>2019-04-18T22:59:13Z</time>
      </trkpt>
      <trkpt lat="51.235596056938" lon="4.492121222366">
        <ele>9.4</ele>
        <time>2019-04-18T22:59:21Z</time>
      </trkpt>
      <trkpt lat="51.235505113323" lon="4.492405787871">
        <ele>8.4</ele>
        <time>2019-04-18T22:59:29Z</time>
      </trkpt>
      <trkpt lat="51.235430682051" lon="4.492711727221">
        <ele>8.4</ele>
        <time>2019-04-18T22:59:37Z</time>
      </trkpt>
      <trkpt lat="51.235343342653" lon="4.493006267187">
        <ele>7.4</ele>
        <time>2019-04-18T22:59:45Z</time>
      </trkpt>
      <trkpt lat="51.235260445662" lon="4.493282953706">
        <ele>5.8</ele>
        <time>2019-04-18T22:59:52Z</time>
      </trkpt>
      <trkpt lat="51.235179644146" lon="4.493561484243">
        <ele>8</ele>
        <time>2019-04-18T22:59:59Z</time>
      </trkpt>
      <trkpt lat="51.23511644462" lon="4.493870357258">
        <ele>14</ele>
        <time>2019-04-18T23:00:07Z</time>
      </trkpt>
      <trkpt lat="51.235031535973" lon="4.494167830889">
        <ele>14.8</ele>
        <time>2019-04-18T23:00:15Z</time>
      </trkpt>
      <trkpt lat="51.234958445805" lon="4.494435297318">
        <ele>16</ele>
        <time>2019-04-18T23:00:22Z</time>
      </trkpt>
      <trkpt lat="51.234865071439" lon="4.494782559435">
        <ele>16</ele>
        <time>2019-04-18T23:00:31Z</time>
      </trkpt>
      <trkpt lat="51.234776642394" lon="4.495057821031">
        <ele>14.2</ele>
        <time>2019-04-18T23:00:39Z</time>
      </trkpt>
      <trkpt lat="51.234692739575" lon="4.495320761234">
        <ele>12.8</ele>
        <time>2019-04-18T23:00:46Z</time>
      </trkpt>
      <trkpt lat="51.234605735453" lon="4.495591999518">
        <ele>12.2</ele>
        <time>2019-04-18T23:00:53Z</time>
      </trkpt>
      <trkpt lat="51.234527951421" lon="4.49587346372">
        <ele>10.2</ele>
        <time>2019-04-18T23:01:01Z</time>
      </trkpt>
      <trkpt lat="51.234440528204" lon="4.496159454148">
        <ele>11</ele>
        <time>2019-04-18T23:01:09Z</time>
      </trkpt>
      <trkpt lat="51.23434950077" lon="4.496427004396">
        <ele>9.6</ele>
        <time>2019-04-18T23:01:17Z</time>
      </trkpt>
      <trkpt lat="51.234262999562" lon="4.496714838842">
        <ele>9.6</ele>
        <time>2019-04-18T23:01:25Z</time>
      </trkpt>
      <trkpt lat="51.234175073431" lon="4.497000996908">
        <ele>8.2</ele>
        <time>2019-04-18T23:01:33Z</time>
      </trkpt>
      <trkpt lat="51.234100474521" lon="4.497277934884">
        <ele>6</ele>
        <time>2019-04-18T23:01:41Z</time>
      </trkpt>
      <trkpt lat="51.233998634436" lon="4.497559985819">
        <ele>0</ele>
        <time>2019-04-18T23:01:50Z</time>
      </trkpt>
      <trkpt lat="51.233909115744" lon="4.49783734289">
        <ele>0</ele>
        <time>2019-04-18T23:01:58Z</time>
      </trkpt>
      <trkpt lat="51.233821273432" lon="4.498088464614">
        <ele>0</ele>
        <time>2019-04-18T23:02:05Z</time>
      </trkpt>
      <trkpt lat="51.233716080587" lon="4.498358277975">
        <ele>0</ele>
        <time>2019-04-18T23:02:13Z</time>
      </trkpt>
      <trkpt lat="51.233602170566" lon="4.498619541798">
        <ele>0</ele>
        <time>2019-04-18T23:02:21Z</time>
      </trkpt>
      <trkpt lat="51.233483063767" lon="4.498873429549">
        <ele>0</ele>
        <time>2019-04-18T23:02:29Z</time>
      </trkpt>
      <trkpt lat="51.23334786372" lon="4.499118683943">
        <ele>0</ele>
        <time>2019-04-18T23:02:37Z</time>
      </trkpt>
      <trkpt lat="51.233210819655" lon="4.499329824004">
        <ele>0</ele>
        <time>2019-04-18T23:02:44Z</time>
      </trkpt>
      <trkpt lat="51.233073188857" lon="4.499537024572">
        <ele>0</ele>
        <time>2019-04-18T23:02:51Z</time>
      </trkpt>
      <trkpt lat="51.232928684901" lon="4.499766269537">
        <ele>0</ele>
        <time>2019-04-18T23:02:59Z</time>
      </trkpt>
      <trkpt lat="51.232802118211" lon="4.499981265272">
        <ele>0</ele>
        <time>2019-04-18T23:03:06Z</time>
      </trkpt>
      <trkpt lat="51.232686196534" lon="4.50020606783">
        <ele>0</ele>
        <time>2019-04-18T23:03:13Z</time>
      </trkpt>
      <trkpt lat="51.232566419183" lon="4.500431038026">
        <ele>0</ele>
        <time>2019-04-18T23:03:20Z</time>
      </trkpt>
      <trkpt lat="51.2324442949" lon="4.500651314358">
        <ele>0</ele>
        <time>2019-04-18T23:03:27Z</time>
      </trkpt>
      <trkpt lat="51.232332731811" lon="4.500881481332">
        <ele>0</ele>
        <time>2019-04-18T23:03:34Z</time>
      </trkpt>
      <trkpt lat="51.232225443491" lon="4.501115923075">
        <ele>0</ele>
        <time>2019-04-18T23:03:41Z</time>
      </trkpt>
      <trkpt lat="51.23211656261" lon="4.501366038971">
        <ele>0</ele>
        <time>2019-04-18T23:03:48Z</time>
      </trkpt>
      <trkpt lat="51.231996282345" lon="4.501596289764">
        <ele>0</ele>
        <time>2019-04-18T23:03:55Z</time>
      </trkpt>
      <trkpt lat="51.231874660976" lon="4.50181874539">
        <ele>0</ele>
        <time>2019-04-18T23:04:02Z</time>
      </trkpt>
      <trkpt lat="51.231721104568" lon="4.501997866593">
        <ele>0</ele>
        <time>2019-04-18T23:04:09Z</time>
      </trkpt>
      <trkpt lat="51.231662431268" lon="4.502256029113">
        <ele>0</ele>
        <time>2019-04-18T23:04:19Z</time>
      </trkpt>
      <trkpt lat="51.231578528449" lon="4.50247504816">
        <ele>0</ele>
        <time>2019-04-18T23:04:27Z</time>
      </trkpt>
      <trkpt lat="51.231461265668" lon="4.50223532582">
        <ele>0</ele>
        <time>2019-04-18T23:04:36Z</time>
      </trkpt>
      <trkpt lat="51.231284910492" lon="4.502139939798">
        <ele>0</ele>
        <time>2019-04-18T23:04:43Z</time>
      </trkpt>
      <trkpt lat="51.23125657967" lon="4.502157541788">
        <ele>0</ele>
        <time>2019-04-18T23:04:44Z</time>
      </trkpt>
      <trkpt lat="51.231261860267" lon="4.502198361641">
        <ele>0</ele>
        <time>2019-04-18T23:04:47Z</time>
      </trkpt>
      <trkpt lat="51.23136554437" lon="4.502453506677">
        <ele>0</ele>
        <time>2019-04-18T23:04:55Z</time>
      </trkpt>
      <trkpt lat="51.231453973415" lon="4.502737736906">
        <ele>0</ele>
        <time>2019-04-18T23:05:03Z</time>
      </trkpt>
      <trkpt lat="51.231477526554" lon="4.503029259388">
        <ele>0</ele>
        <time>2019-04-18T23:05:10Z</time>
      </trkpt>
      <trkpt lat="51.231445004782" lon="4.503310975047">
        <ele>0</ele>
        <time>2019-04-18T23:05:17Z</time>
      </trkpt>
      <trkpt lat="51.231367723664" lon="4.503589924679">
        <ele>0</ele>
        <time>2019-04-18T23:05:24Z</time>
      </trkpt>
      <trkpt lat="51.231262866095" lon="4.503865940646">
        <ele>0</ele>
        <time>2019-04-18T23:05:32Z</time>
      </trkpt>
      <trkpt lat="51.231216681826" lon="4.504165174476">
        <ele>0</ele>
        <time>2019-04-18T23:05:40Z</time>
      </trkpt>
      <trkpt lat="51.231186087891" lon="4.504449320886">
        <ele>0</ele>
        <time>2019-04-18T23:05:48Z</time>
      </trkpt>
      <trkpt lat="51.231132192274" lon="4.504723492835">
        <ele>0</ele>
        <time>2019-04-18T23:05:55Z</time>
      </trkpt>
      <trkpt lat="51.231081314141" lon="4.505005459951">
        <ele>0</ele>
        <time>2019-04-18T23:06:02Z</time>
      </trkpt>
      <trkpt lat="51.231012414923" lon="4.505295138415">
        <ele>0</ele>
        <time>2019-04-18T23:06:09Z</time>
      </trkpt>
      <trkpt lat="51.230927338638" lon="4.505591522399">
        <ele>0</ele>
        <time>2019-04-18T23:06:17Z</time>
      </trkpt>
      <trkpt lat="51.23076372395" lon="4.50602981195">
        <ele>0</ele>
        <time>2019-04-18T23:06:29Z</time>
      </trkpt>
      <trkpt lat="51.230691723429" lon="4.506293506524">
        <ele>0</ele>
        <time>2019-04-18T23:06:36Z</time>
      </trkpt>
      <trkpt lat="51.230612682112" lon="4.506559128935">
        <ele>0</ele>
        <time>2019-04-18T23:06:43Z</time>
      </trkpt>
      <trkpt lat="51.230537580288" lon="4.506823410242">
        <ele>0</ele>
        <time>2019-04-18T23:06:50Z</time>
      </trkpt>
      <trkpt lat="51.230483684671" lon="4.507123063167">
        <ele>0</ele>
        <time>2019-04-18T23:06:58Z</time>
      </trkpt>
      <trkpt lat="51.230447893958" lon="4.507432355277">
        <ele>0</ele>
        <time>2019-04-18T23:07:06Z</time>
      </trkpt>
      <trkpt lat="51.230384945889" lon="4.507734271315">
        <ele>0</ele>
        <time>2019-04-18T23:07:14Z</time>
      </trkpt>
      <trkpt lat="51.230308335323" lon="4.508002659753">
        <ele>0</ele>
        <time>2019-04-18T23:07:21Z</time>
      </trkpt>
      <trkpt lat="51.230253517697" lon="4.508311281311">
        <ele>0</ele>
        <time>2019-04-18T23:07:29Z</time>
      </trkpt>
      <trkpt lat="51.230190234352" lon="4.508607665295">
        <ele>0</ele>
        <time>2019-04-18T23:07:37Z</time>
      </trkpt>
      <trkpt lat="51.230150587965" lon="4.508914694292">
        <ele>0</ele>
        <time>2019-04-18T23:07:45Z</time>
      </trkpt>
      <trkpt lat="51.230097865814" lon="4.509197248141">
        <ele>0</ele>
        <time>2019-04-18T23:07:52Z</time>
      </trkpt>
      <trkpt lat="51.230040617437" lon="4.509487680976">
        <ele>0</ele>
        <time>2019-04-18T23:08:00Z</time>
      </trkpt>
      <trkpt lat="51.229948919451" lon="4.509734025017">
        <ele>0</ele>
        <time>2019-04-18T23:08:07Z</time>
      </trkpt>
      <trkpt lat="51.229894353282" lon="4.510003922197">
        <ele>0</ele>
        <time>2019-04-18T23:08:14Z</time>
      </trkpt>
      <trkpt lat="51.229840457665" lon="4.510320003646">
        <ele>0</ele>
        <time>2019-04-18T23:08:22Z</time>
      </trkpt>
      <trkpt lat="51.229781784365" lon="4.510627703195">
        <ele>0</ele>
        <time>2019-04-18T23:08:30Z</time>
      </trkpt>
      <trkpt lat="51.229730906232" lon="4.510937665857">
        <ele>0</ele>
        <time>2019-04-18T23:08:38Z</time>
      </trkpt>
      <trkpt lat="51.229641722816" lon="4.511199264956">
        <ele>0</ele>
        <time>2019-04-18T23:08:45Z</time>
      </trkpt>
      <trkpt lat="51.229580451127" lon="4.511478801321">
        <ele>0</ele>
        <time>2019-04-18T23:08:52Z</time>
      </trkpt>
      <trkpt lat="51.229545582423" lon="4.511771245812">
        <ele>0</ele>
        <time>2019-04-18T23:08:59Z</time>
      </trkpt>
      <trkpt lat="51.229474168635" lon="4.512065031407">
        <ele>0</ele>
        <time>2019-04-18T23:09:07Z</time>
      </trkpt>
      <trkpt lat="51.229389176169" lon="4.512318416244">
        <ele>0</ele>
        <time>2019-04-18T23:09:14Z</time>
      </trkpt>
      <trkpt lat="51.229315583087" lon="4.512584038655">
        <ele>0</ele>
        <time>2019-04-18T23:09:22Z</time>
      </trkpt>
      <trkpt lat="51.22923989453" lon="4.512848152324">
        <ele>0</ele>
        <time>2019-04-18T23:09:29Z</time>
      </trkpt>
      <trkpt lat="51.229175437719" lon="4.51315694152">
        <ele>0</ele>
        <time>2019-04-18T23:09:37Z</time>
      </trkpt>
      <trkpt lat="51.229105867949" lon="4.513453241685">
        <ele>0</ele>
        <time>2019-04-18T23:09:45Z</time>
      </trkpt>
      <trkpt lat="51.229045769726" lon="4.513732107498">
        <ele>0</ele>
        <time>2019-04-18T23:09:53Z</time>
      </trkpt>
      <trkpt lat="51.228983743666" lon="4.514004100153">
        <ele>0</ele>
        <time>2019-04-18T23:10:01Z</time>
      </trkpt>
      <trkpt lat="51.228928004031" lon="4.514317583213">
        <ele>0</ele>
        <time>2019-04-18T23:10:09Z</time>
      </trkpt>
      <trkpt lat="51.228888022368" lon="4.514618158147">
        <ele>0</ele>
        <time>2019-04-18T23:10:16Z</time>
      </trkpt>
      <trkpt lat="51.228858685718" lon="4.514915380321">
        <ele>0</ele>
        <time>2019-04-18T23:10:23Z</time>
      </trkpt>
      <trkpt lat="51.228831276905" lon="4.515230372123">
        <ele>0</ele>
        <time>2019-04-18T23:10:31Z</time>
      </trkpt>
      <trkpt lat="51.228777297469" lon="4.515522481338">
        <ele>0</ele>
        <time>2019-04-18T23:10:38Z</time>
      </trkpt>
      <trkpt lat="51.228690125709" lon="4.515802352979">
        <ele>0</ele>
        <time>2019-04-18T23:10:45Z</time>
      </trkpt>
      <trkpt lat="51.22861628117" lon="4.516103849922">
        <ele>0</ele>
        <time>2019-04-18T23:10:54Z</time>
      </trkpt>
      <trkpt lat="51.228566325046" lon="4.516380787898">
        <ele>0</ele>
        <time>2019-04-18T23:11:02Z</time>
      </trkpt>
      <trkpt lat="51.228493318697" lon="4.516666862145">
        <ele>0</ele>
        <time>2019-04-18T23:11:10Z</time>
      </trkpt>
      <trkpt lat="51.228406649851" lon="4.516968694364">
        <ele>0</ele>
        <time>2019-04-18T23:11:19Z</time>
      </trkpt>
      <trkpt lat="51.228290476717" lon="4.517193161646">
        <ele>0</ele>
        <time>2019-04-18T23:11:27Z</time>
      </trkpt>
      <trkpt lat="51.228173800669" lon="4.517440762972">
        <ele>0</ele>
        <time>2019-04-18T23:11:35Z</time>
      </trkpt>
      <trkpt lat="51.228054274775" lon="4.517677048733">
        <ele>0</ele>
        <time>2019-04-18T23:11:43Z</time>
      </trkpt>
      <trkpt lat="51.227941370582" lon="4.517944515162">
        <ele>0</ele>
        <time>2019-04-18T23:11:51Z</time>
      </trkpt>
      <trkpt lat="51.227839446678" lon="4.518223464794">
        <ele>0</ele>
        <time>2019-04-18T23:11:59Z</time>
      </trkpt>
      <trkpt lat="51.227726542485" lon="4.51849285906">
        <ele>0</ele>
        <time>2019-04-18T23:12:07Z</time>
      </trkpt>
      <trkpt lat="51.227622104011" lon="4.51877029995">
        <ele>0</ele>
        <time>2019-04-18T23:12:15Z</time>
      </trkpt>
      <trkpt lat="51.227388835734" lon="4.51899744944">
        <ele>0</ele>
        <time>2019-04-18T23:12:27Z</time>
      </trkpt>
      <trkpt lat="51.227203260468" lon="4.519000215467">
        <ele>0</ele>
        <time>2019-04-18T23:12:35Z</time>
      </trkpt>
      <trkpt lat="51.22708742261" lon="4.518771892511">
        <ele>0</ele>
        <time>2019-04-18T23:12:45Z</time>
      </trkpt>
      <trkpt lat="51.227020702686" lon="4.51847022793">
        <ele>0</ele>
        <time>2019-04-18T23:12:53Z</time>
      </trkpt>
      <trkpt lat="51.226961107377" lon="4.518197648542">
        <ele>0</ele>
        <time>2019-04-18T23:13:00Z</time>
      </trkpt>
      <trkpt lat="51.226932860374" lon="4.517874107202">
        <ele>0</ele>
        <time>2019-04-18T23:13:08Z</time>
      </trkpt>
      <trkpt lat="51.226875611997" lon="4.517580237788">
        <ele>0</ele>
        <time>2019-04-18T23:13:16Z</time>
      </trkpt>
      <trkpt lat="51.22680830534" lon="4.517306233477">
        <ele>4.4</ele>
        <time>2019-04-18T23:13:24Z</time>
      </trkpt>
      <trkpt lat="51.226769161867" lon="4.516998114833">
        <ele>6.2</ele>
        <time>2019-04-18T23:13:32Z</time>
      </trkpt>
      <trkpt lat="51.226721301218" lon="4.516713130233">
        <ele>7.4</ele>
        <time>2019-04-18T23:13:41Z</time>
      </trkpt>
      <trkpt lat="51.226672015646" lon="4.516424709054">
        <ele>10.8</ele>
        <time>2019-04-18T23:13:49Z</time>
      </trkpt>
      <trkpt lat="51.226599093116" lon="4.516136455513">
        <ele>16.4</ele>
        <time>2019-04-18T23:13:57Z</time>
      </trkpt>
      <trkpt lat="51.226543688757" lon="4.515861277736">
        <ele>17</ele>
        <time>2019-04-18T23:14:05Z</time>
      </trkpt>
      <trkpt lat="51.226482668525" lon="4.515567743598">
        <ele>17.4</ele>
        <time>2019-04-18T23:14:14Z</time>
      </trkpt>
      <trkpt lat="51.226394155661" lon="4.515280328247">
        <ele>19.4</ele>
        <time>2019-04-18T23:14:22Z</time>
      </trkpt>
      <trkpt lat="51.226306145711" lon="4.515018477691">
        <ele>22.8</ele>
        <time>2019-04-18T23:14:29Z</time>
      </trkpt>
      <trkpt lat="51.22624923261" lon="4.514729134503">
        <ele>21.4</ele>
        <time>2019-04-18T23:14:36Z</time>
      </trkpt>
      <trkpt lat="51.226181506858" lon="4.514430906501">
        <ele>17.6</ele>
        <time>2019-04-18T23:14:44Z</time>
      </trkpt>
      <trkpt lat="51.226085450284" lon="4.514141563313">
        <ele>15.4</ele>
        <time>2019-04-18T23:14:52Z</time>
      </trkpt>
      <trkpt lat="51.226046474449" lon="4.513837803257">
        <ele>6.4</ele>
        <time>2019-04-18T23:14:59Z</time>
      </trkpt>
      <trkpt lat="51.226045300983" lon="4.513522895274">
        <ele>0.8</ele>
        <time>2019-04-18T23:15:06Z</time>
      </trkpt>
      <trkpt lat="51.225989728986" lon="4.513253584827">
        <ele>0</ele>
        <time>2019-04-18T23:15:13Z</time>
      </trkpt>
      <trkpt lat="51.22591814756" lon="4.512954518635">
        <ele>0</ele>
        <time>2019-04-18T23:15:21Z</time>
      </trkpt>
      <trkpt lat="51.225877327707" lon="4.512662325601">
        <ele>0</ele>
        <time>2019-04-18T23:15:28Z</time>
      </trkpt>
      <trkpt lat="51.225911861135" lon="4.512318080968">
        <ele>4.4</ele>
        <time>2019-04-18T23:15:37Z</time>
      </trkpt>
      <trkpt lat="51.225889900557" lon="4.512008872677">
        <ele>9</ele>
        <time>2019-04-18T23:15:45Z</time>
      </trkpt>
      <trkpt lat="51.225779343296" lon="4.511757834772">
        <ele>9.4</ele>
        <time>2019-04-18T23:15:53Z</time>
      </trkpt>
      <trkpt lat="51.225638275919" lon="4.511511155455">
        <ele>9</ele>
        <time>2019-04-18T23:16:02Z</time>
      </trkpt>
      <trkpt lat="51.225538615128" lon="4.511237737877">
        <ele>9.2</ele>
        <time>2019-04-18T23:16:10Z</time>
      </trkpt>
      <trkpt lat="51.225463094209" lon="4.510962308643">
        <ele>9.2</ele>
        <time>2019-04-18T23:16:18Z</time>
      </trkpt>
      <trkpt lat="51.225512128324" lon="4.510772123332">
        <ele>9.4</ele>
        <time>2019-04-18T23:16:25Z</time>
      </trkpt>
      <trkpt lat="51.225464100037" lon="4.510497951383">
        <ele>8.8</ele>
        <time>2019-04-18T23:16:33Z</time>
      </trkpt>
      <trkpt lat="51.225370138938" lon="4.510259989242">
        <ele>9.8</ele>
        <time>2019-04-18T23:16:41Z</time>
      </trkpt>
      <trkpt lat="51.225244410438" lon="4.510020769816">
        <ele>11.2</ele>
        <time>2019-04-18T23:16:49Z</time>
      </trkpt>
      <trkpt lat="51.225139552869" lon="4.509754225396">
        <ele>12.8</ele>
        <time>2019-04-18T23:16:57Z</time>
      </trkpt>
      <trkpt lat="51.225068641995" lon="4.509474186117">
        <ele>14.4</ele>
        <time>2019-04-18T23:17:05Z</time>
      </trkpt>
      <trkpt lat="51.225004855736" lon="4.509194230657">
        <ele>12</ele>
        <time>2019-04-18T23:17:13Z</time>
      </trkpt>
      <trkpt lat="51.224942242943" lon="4.508894577732">
        <ele>9.6</ele>
        <time>2019-04-18T23:17:22Z</time>
      </trkpt>
      <trkpt lat="51.224888095869" lon="4.508601797965">
        <ele>9.8</ele>
        <time>2019-04-18T23:17:30Z</time>
      </trkpt>
      <trkpt lat="51.224821124488" lon="4.508298708461">
        <ele>8.2</ele>
        <time>2019-04-18T23:17:38Z</time>
      </trkpt>
      <trkpt lat="51.224762367369" lon="4.50802638053">
        <ele>7.2</ele>
        <time>2019-04-18T23:17:46Z</time>
      </trkpt>
      <trkpt lat="51.224705118992" lon="4.507735109505">
        <ele>7.4</ele>
        <time>2019-04-18T23:17:54Z</time>
      </trkpt>
      <trkpt lat="51.224636387412" lon="4.507454232036">
        <ele>7.4</ele>
        <time>2019-04-18T23:18:02Z</time>
      </trkpt>
      <trkpt lat="51.224572601153" lon="4.507167990151">
        <ele>7.8</ele>
        <time>2019-04-18T23:18:10Z</time>
      </trkpt>
      <trkpt lat="51.224521471563" lon="4.506891890365">
        <ele>8.2</ele>
        <time>2019-04-18T23:18:18Z</time>
      </trkpt>
      <trkpt lat="51.224457266209" lon="4.506589806689">
        <ele>8.2</ele>
        <time>2019-04-18T23:18:26Z</time>
      </trkpt>
      <trkpt lat="51.224401778031" lon="4.506285208443">
        <ele>7.4</ele>
        <time>2019-04-18T23:18:34Z</time>
      </trkpt>
      <trkpt lat="51.224339416695" lon="4.505951692642">
        <ele>8.6</ele>
        <time>2019-04-18T23:18:43Z</time>
      </trkpt>
      <trkpt lat="51.224297004281" lon="4.505648267862">
        <ele>11</ele>
        <time>2019-04-18T23:18:52Z</time>
      </trkpt>
      <trkpt lat="51.224236570782" lon="4.505355739552">
        <ele>11.6</ele>
        <time>2019-04-18T23:19:00Z</time>
      </trkpt>
      <trkpt lat="51.224176807835" lon="4.505062037776">
        <ele>10</ele>
        <time>2019-04-18T23:19:08Z</time>
      </trkpt>
      <trkpt lat="51.224122493123" lon="4.504769090371">
        <ele>9.4</ele>
        <time>2019-04-18T23:19:16Z</time>
      </trkpt>
      <trkpt lat="51.224061137615" lon="4.504470946188">
        <ele>8.6</ele>
        <time>2019-04-18T23:19:24Z</time>
      </trkpt>
      <trkpt lat="51.224009421292" lon="4.504170622711">
        <ele>9.2</ele>
        <time>2019-04-18T23:19:32Z</time>
      </trkpt>
      <trkpt lat="51.223956866779" lon="4.503871975614">
        <ele>8</ele>
        <time>2019-04-18T23:19:41Z</time>
      </trkpt>
      <trkpt lat="51.223905318094" lon="4.503567796463">
        <ele>6.4</ele>
        <time>2019-04-18T23:19:50Z</time>
      </trkpt>
      <trkpt lat="51.223840609826" lon="4.503274765239">
        <ele>6.2</ele>
        <time>2019-04-18T23:19:59Z</time>
      </trkpt>
      <trkpt lat="51.223773806083" lon="4.502977626884">
        <ele>5</ele>
        <time>2019-04-18T23:20:08Z</time>
      </trkpt>
      <trkpt lat="51.223721419208" lon="4.502696581777">
        <ele>4.4</ele>
        <time>2019-04-18T23:20:17Z</time>
      </trkpt>
      <trkpt lat="51.223663751736" lon="4.50239542011">
        <ele>6.4</ele>
        <time>2019-04-18T23:20:26Z</time>
      </trkpt>
      <trkpt lat="51.223597786183" lon="4.502114794098">
        <ele>10.2</ele>
        <time>2019-04-18T23:20:34Z</time>
      </trkpt>
      <trkpt lat="51.223536682132" lon="4.501815979363">
        <ele>12.4</ele>
        <time>2019-04-18T23:20:42Z</time>
      </trkpt>
      <trkpt lat="51.223462418498" lon="4.501537448826">
        <ele>14.4</ele>
        <time>2019-04-18T23:20:50Z</time>
      </trkpt>
      <trkpt lat="51.223414557849" lon="4.501260846126">
        <ele>13.2</ele>
        <time>2019-04-18T23:20:58Z</time>
      </trkpt>
      <trkpt lat="51.223354208169" lon="4.500972760223">
        <ele>12.2</ele>
        <time>2019-04-18T23:21:06Z</time>
      </trkpt>
      <trkpt lat="51.223293104118" lon="4.500663216656">
        <ele>13</ele>
        <time>2019-04-18T23:21:14Z</time>
      </trkpt>
      <trkpt lat="51.223231161877" lon="4.500364066645">
        <ele>14.6</ele>
        <time>2019-04-18T23:21:22Z</time>
      </trkpt>
      <trkpt lat="51.223162430297" lon="4.50007614838">
        <ele>11.4</ele>
        <time>2019-04-18T23:21:30Z</time>
      </trkpt>
      <trkpt lat="51.22310350554" lon="4.499782195147">
        <ele>9.2</ele>
        <time>2019-04-18T23:21:38Z</time>
      </trkpt>
      <trkpt lat="51.223055058158" lon="4.499479860014">
        <ele>9.2</ele>
        <time>2019-04-18T23:21:46Z</time>
      </trkpt>
      <trkpt lat="51.222989846976" lon="4.499195378328">
        <ele>9</ele>
        <time>2019-04-18T23:21:53Z</time>
      </trkpt>
      <trkpt lat="51.22292916202" lon="4.49892112256">
        <ele>8.6</ele>
        <time>2019-04-18T23:22:00Z</time>
      </trkpt>
      <trkpt lat="51.222879457353" lon="4.498621134359">
        <ele>9</ele>
        <time>2019-04-18T23:22:08Z</time>
      </trkpt>
      <trkpt lat="51.222851042712" lon="4.498326929669">
        <ele>9.6</ele>
        <time>2019-04-18T23:22:16Z</time>
      </trkpt>
      <trkpt lat="51.223026559698" lon="4.498186113749">
        <ele>10.2</ele>
        <time>2019-04-18T23:22:24Z</time>
      </trkpt>
      <trkpt lat="51.223115826933" lon="4.497913199085">
        <ele>8.8</ele>
        <time>2019-04-18T23:22:32Z</time>
      </trkpt>
      <trkpt lat="51.223114821105" lon="4.497602901147">
        <ele>8</ele>
        <time>2019-04-18T23:22:41Z</time>
      </trkpt>
      <trkpt lat="51.222982470904" lon="4.497382708634">
        <ele>6.8</ele>
        <time>2019-04-18T23:22:49Z</time>
      </trkpt>
      <trkpt lat="51.222903681044" lon="4.497079702949">
        <ele>6.6</ele>
        <time>2019-04-18T23:22:57Z</time>
      </trkpt>
      <trkpt lat="51.222837883129" lon="4.496806788285">
        <ele>9.6</ele>
        <time>2019-04-18T23:23:04Z</time>
      </trkpt>
      <trkpt lat="51.22278164058" lon="4.496529598852">
        <ele>10.4</ele>
        <time>2019-04-18T23:23:11Z</time>
      </trkpt>
      <trkpt lat="51.222723134918" lon="4.496222821312">
        <ele>8.8</ele>
        <time>2019-04-18T23:23:19Z</time>
      </trkpt>
      <trkpt lat="51.222665215989" lon="4.495935573599">
        <ele>7.6</ele>
        <time>2019-04-18T23:23:27Z</time>
      </trkpt>
      <trkpt lat="51.222614924589" lon="4.495620917073">
        <ele>7.2</ele>
        <time>2019-04-18T23:23:35Z</time>
      </trkpt>
      <trkpt lat="51.222543175525" lon="4.495324281632">
        <ele>8.8</ele>
        <time>2019-04-18T23:23:43Z</time>
      </trkpt>
      <trkpt lat="51.222477964343" lon="4.495032004779">
        <ele>8.8</ele>
        <time>2019-04-18T23:23:51Z</time>
      </trkpt>
      <trkpt lat="51.222415267731" lon="4.494756575545">
        <ele>7.4</ele>
        <time>2019-04-18T23:23:59Z</time>
      </trkpt>
      <trkpt lat="51.222345195047" lon="4.494461616484">
        <ele>8.4</ele>
        <time>2019-04-18T23:24:07Z</time>
      </trkpt>
      <trkpt lat="51.222280738236" lon="4.49418954001">
        <ele>10</ele>
        <time>2019-04-18T23:24:14Z</time>
      </trkpt>
      <trkpt lat="51.222213599217" lon="4.493906986161">
        <ele>10.6</ele>
        <time>2019-04-18T23:24:22Z</time>
      </trkpt>
      <trkpt lat="51.222162721084" lon="4.493626192511">
        <ele>9.8</ele>
        <time>2019-04-18T23:24:30Z</time>
      </trkpt>
      <trkpt lat="51.222119135204" lon="4.493342716653">
        <ele>8.8</ele>
        <time>2019-04-18T23:24:38Z</time>
      </trkpt>
      <trkpt lat="51.22209516297" lon="4.493059156976">
        <ele>8.4</ele>
        <time>2019-04-18T23:24:46Z</time>
      </trkpt>
      <trkpt lat="51.22199541836" lon="4.492586417816">
        <ele>9.8</ele>
        <time>2019-04-18T23:25:00Z</time>
      </trkpt>
      <trkpt lat="51.221949904643" lon="4.492302522863">
        <ele>9.2</ele>
        <time>2019-04-18T23:25:08Z</time>
      </trkpt>
      <trkpt lat="51.221898691234" lon="4.491993398391">
        <ele>8</ele>
        <time>2019-04-18T23:25:16Z</time>
      </trkpt>
      <trkpt lat="51.221838090097" lon="4.491703803746">
        <ele>7.8</ele>
        <time>2019-04-18T23:25:24Z</time>
      </trkpt>
      <trkpt lat="51.221776315494" lon="4.491404653735">
        <ele>8.6</ele>
        <time>2019-04-18T23:25:32Z</time>
      </trkpt>
      <trkpt lat="51.221721078773" lon="4.491096367453">
        <ele>9</ele>
        <time>2019-04-18T23:25:40Z</time>
      </trkpt>
      <trkpt lat="51.221654358849" lon="4.490807275722">
        <ele>9</ele>
        <time>2019-04-18T23:25:48Z</time>
      </trkpt>
      <trkpt lat="51.221594679721" lon="4.490498570345">
        <ele>9.6</ele>
        <time>2019-04-18T23:25:56Z</time>
      </trkpt>
      <trkpt lat="51.221523349752" lon="4.490201348171">
        <ele>9.8</ele>
        <time>2019-04-18T23:26:04Z</time>
      </trkpt>
      <trkpt lat="51.221459228217" lon="4.489906053834">
        <ele>10</ele>
        <time>2019-04-18T23:26:12Z</time>
      </trkpt>
      <trkpt lat="51.221406673704" lon="4.48960966985">
        <ele>9.4</ele>
        <time>2019-04-18T23:26:20Z</time>
      </trkpt>
      <trkpt lat="51.221349592965" lon="4.489334156797">
        <ele>8.4</ele>
        <time>2019-04-18T23:26:28Z</time>
      </trkpt>
      <trkpt lat="51.221303995429" lon="4.489042382858">
        <ele>8.6</ele>
        <time>2019-04-18T23:26:36Z</time>
      </trkpt>
      <trkpt lat="51.221240041532" lon="4.488755721878">
        <ele>8.8</ele>
        <time>2019-04-18T23:26:44Z</time>
      </trkpt>
      <trkpt lat="51.221179691852" lon="4.488445340121">
        <ele>8.4</ele>
        <time>2019-04-18T23:26:52Z</time>
      </trkpt>
      <trkpt lat="51.221121270009" lon="4.488172760733">
        <ele>8.8</ele>
        <time>2019-04-18T23:26:59Z</time>
      </trkpt>
      <trkpt lat="51.221065446555" lon="4.487875957654">
        <ele>9.4</ele>
        <time>2019-04-18T23:27:07Z</time>
      </trkpt>
      <trkpt lat="51.221009623101" lon="4.487588123208">
        <ele>9.2</ele>
        <time>2019-04-18T23:27:16Z</time>
      </trkpt>
      <trkpt lat="51.220951117439" lon="4.487308922119">
        <ele>10</ele>
        <time>2019-04-18T23:27:25Z</time>
      </trkpt>
      <trkpt lat="51.220895042528" lon="4.486997450715">
        <ele>9.2</ele>
        <time>2019-04-18T23:27:34Z</time>
      </trkpt>
      <trkpt lat="51.220850869915" lon="4.486694947944">
        <ele>7.4</ele>
        <time>2019-04-18T23:27:43Z</time>
      </trkpt>
      <trkpt lat="51.220779539946" lon="4.486411304448">
        <ele>8</ele>
        <time>2019-04-18T23:27:51Z</time>
      </trkpt>
      <trkpt lat="51.220728661813" lon="4.486108717858">
        <ele>7.8</ele>
        <time>2019-04-18T23:27:59Z</time>
      </trkpt>
      <trkpt lat="51.220669820875" lon="4.485813088245">
        <ele>7.4</ele>
        <time>2019-04-18T23:28:07Z</time>
      </trkpt>
      <trkpt lat="51.220608465367" lon="4.485502371212">
        <ele>8.8</ele>
        <time>2019-04-18T23:28:15Z</time>
      </trkpt>
      <trkpt lat="51.220564460392" lon="4.485199700803">
        <ele>9.4</ele>
        <time>2019-04-18T23:28:24Z</time>
      </trkpt>
      <trkpt lat="51.220489023292" lon="4.484916811678">
        <ele>10.4</ele>
        <time>2019-04-18T23:28:32Z</time>
      </trkpt>
      <trkpt lat="51.220424482662" lon="4.484633000544">
        <ele>11</ele>
        <time>2019-04-18T23:28:40Z</time>
      </trkpt>
      <trkpt lat="51.220359187661" lon="4.484334856361">
        <ele>11.6</ele>
        <time>2019-04-18T23:28:48Z</time>
      </trkpt>
      <trkpt lat="51.220286097493" lon="4.484046770458">
        <ele>12</ele>
        <time>2019-04-18T23:28:56Z</time>
      </trkpt>
      <trkpt lat="51.220233962075" lon="4.483758516917">
        <ele>10.8</ele>
        <time>2019-04-18T23:29:04Z</time>
      </trkpt>
      <trkpt lat="51.220185430874" lon="4.483454253947">
        <ele>9</ele>
        <time>2019-04-18T23:29:13Z</time>
      </trkpt>
      <trkpt lat="51.220149472523" lon="4.483153762832">
        <ele>8.4</ele>
        <time>2019-04-18T23:29:21Z</time>
      </trkpt>
      <trkpt lat="51.2200809924" lon="4.482872047173">
        <ele>7.4</ele>
        <time>2019-04-18T23:29:29Z</time>
      </trkpt>
      <trkpt lat="51.220019720711" lon="4.482599216328">
        <ele>7.2</ele>
        <time>2019-04-18T23:29:36Z</time>
      </trkpt>
      <trkpt lat="51.219955431538" lon="4.482325631112">
        <ele>8.2</ele>
        <time>2019-04-18T23:29:43Z</time>
      </trkpt>
      <trkpt lat="51.219895584772" lon="4.482042825806">
        <ele>10.6</ele>
        <time>2019-04-18T23:29:51Z</time>
      </trkpt>
      <trkpt lat="51.219839677499" lon="4.48173319842">
        <ele>10.8</ele>
        <time>2019-04-18T23:29:59Z</time>
      </trkpt>
      <trkpt lat="51.219779160181" lon="4.481427510527">
        <ele>10.2</ele>
        <time>2019-04-18T23:30:07Z</time>
      </trkpt>
      <trkpt lat="51.219724258736" lon="4.481130372172">
        <ele>10.6</ele>
        <time>2019-04-18T23:30:15Z</time>
      </trkpt>
      <trkpt lat="51.219725432202" lon="4.480821750614">
        <ele>7.2</ele>
        <time>2019-04-18T23:30:23Z</time>
      </trkpt>
      <trkpt lat="51.219670111662" lon="4.480535341091">
        <ele>6.6</ele>
        <time>2019-04-18T23:30:31Z</time>
      </trkpt>
      <trkpt lat="51.219568774491" lon="4.480269131947">
        <ele>5.2</ele>
        <time>2019-04-18T23:30:40Z</time>
      </trkpt>
      <trkpt lat="51.219508424811" lon="4.479972664144">
        <ele>5.6</ele>
        <time>2019-04-18T23:30:48Z</time>
      </trkpt>
      <trkpt lat="51.219453942461" lon="4.479660019274">
        <ele>6</ele>
        <time>2019-04-18T23:30:56Z</time>
      </trkpt>
      <trkpt lat="51.219387473994" lon="4.479348296413">
        <ele>4.8</ele>
        <time>2019-04-18T23:31:04Z</time>
      </trkpt>
      <trkpt lat="51.219288819031" lon="4.478996005156">
        <ele>6.2</ele>
        <time>2019-04-18T23:31:13Z</time>
      </trkpt>
      <trkpt lat="51.219217069967" lon="4.47871403804">
        <ele>7.8</ele>
        <time>2019-04-18T23:31:20Z</time>
      </trkpt>
      <trkpt lat="51.219148003111" lon="4.478418827522">
        <ele>8</ele>
        <time>2019-04-18T23:31:28Z</time>
      </trkpt>
      <trkpt lat="51.219090168001" lon="4.478137530958">
        <ele>8.4</ele>
        <time>2019-04-18T23:31:35Z</time>
      </trkpt>
      <trkpt lat="51.219026381742" lon="4.477858329869">
        <ele>9</ele>
        <time>2019-04-18T23:31:42Z</time>
      </trkpt>
      <trkpt lat="51.218967708442" lon="4.477548870121">
        <ele>8</ele>
        <time>2019-04-18T23:31:50Z</time>
      </trkpt>
      <trkpt lat="51.218926301856" lon="4.477236560527">
        <ele>8.2</ele>
        <time>2019-04-18T23:31:58Z</time>
      </trkpt>
      <trkpt lat="51.218901072337" lon="4.47692701696">
        <ele>8.8</ele>
        <time>2019-04-18T23:32:06Z</time>
      </trkpt>
      <trkpt lat="51.218926385675" lon="4.476607582751">
        <ele>8.8</ele>
        <time>2019-04-18T23:32:14Z</time>
      </trkpt>
      <trkpt lat="51.218962427845" lon="4.476321424685">
        <ele>7.2</ele>
        <time>2019-04-18T23:32:21Z</time>
      </trkpt>
      <trkpt lat="51.218977599084" lon="4.476033171144">
        <ele>6.2</ele>
        <time>2019-04-18T23:32:29Z</time>
      </trkpt>
      <trkpt lat="51.21901062377" lon="4.475738882635">
        <ele>6.4</ele>
        <time>2019-04-18T23:32:37Z</time>
      </trkpt>
      <trkpt lat="51.219041385343" lon="4.475438140063">
        <ele>9</ele>
        <time>2019-04-18T23:32:45Z</time>
      </trkpt>
      <trkpt lat="51.219068961794" lon="4.475151814359">
        <ele>8.6</ele>
        <time>2019-04-18T23:32:53Z</time>
      </trkpt>
      <trkpt lat="51.219125371981" lon="4.474877726229">
        <ele>8.2</ele>
        <time>2019-04-18T23:33:01Z</time>
      </trkpt>
      <trkpt lat="51.219161749427" lon="4.474568015024">
        <ele>8.6</ele>
        <time>2019-04-18T23:33:09Z</time>
      </trkpt>
      <trkpt lat="51.219205167669" lon="4.474252939403">
        <ele>7.8</ele>
        <time>2019-04-18T23:33:18Z</time>
      </trkpt>
      <trkpt lat="51.21925202249" lon="4.473942641465">
        <ele>7.2</ele>
        <time>2019-04-18T23:33:26Z</time>
      </trkpt>
      <trkpt lat="51.21929560837" lon="4.473661847815">
        <ele>7.8</ele>
        <time>2019-04-18T23:33:33Z</time>
      </trkpt>
      <trkpt lat="51.219348581978" lon="4.473361189062">
        <ele>6.2</ele>
        <time>2019-04-18T23:33:41Z</time>
      </trkpt>
      <trkpt lat="51.219380097922" lon="4.473068996028">
        <ele>8.6</ele>
        <time>2019-04-18T23:33:48Z</time>
      </trkpt>
      <trkpt lat="51.219414882807" lon="4.47278887293">
        <ele>9.8</ele>
        <time>2019-04-18T23:33:55Z</time>
      </trkpt>
      <trkpt lat="51.219460647981" lon="4.472509504203">
        <ele>10.4</ele>
        <time>2019-04-18T23:34:02Z</time>
      </trkpt>
      <trkpt lat="51.219515633245" lon="4.472206666156">
        <ele>9.2</ele>
        <time>2019-04-18T23:34:10Z</time>
      </trkpt>
      <trkpt lat="51.219574474183" lon="4.471897206408">
        <ele>7.4</ele>
        <time>2019-04-18T23:34:18Z</time>
      </trkpt>
      <trkpt lat="51.219629710904" lon="4.471612305627">
        <ele>5</ele>
        <time>2019-04-18T23:34:25Z</time>
      </trkpt>
      <trkpt lat="51.21967614663" lon="4.471328410674">
        <ele>5</ele>
        <time>2019-04-18T23:34:32Z</time>
      </trkpt>
      <trkpt lat="51.219729204057" lon="4.471037139649">
        <ele>5.2</ele>
        <time>2019-04-18T23:34:40Z</time>
      </trkpt>
      <trkpt lat="51.219768096073" lon="4.470727847539">
        <ele>6.8</ele>
        <time>2019-04-18T23:34:48Z</time>
      </trkpt>
      <trkpt lat="51.219824841536" lon="4.470423081655">
        <ele>8</ele>
        <time>2019-04-18T23:34:56Z</time>
      </trkpt>
      <trkpt lat="51.219901787378" lon="4.470118818685">
        <ele>8.4</ele>
        <time>2019-04-18T23:35:04Z</time>
      </trkpt>
      <trkpt lat="51.219960544497" lon="4.469808185471">
        <ele>9.2</ele>
        <time>2019-04-18T23:35:12Z</time>
      </trkpt>
      <trkpt lat="51.220017876693" lon="4.469527978554">
        <ele>8.8</ele>
        <time>2019-04-18T23:35:19Z</time>
      </trkpt>
      <trkpt lat="51.220058528908" lon="4.469228157991">
        <ele>7.6</ele>
        <time>2019-04-18T23:35:26Z</time>
      </trkpt>
      <trkpt lat="51.220094151983" lon="4.468928337428">
        <ele>11.6</ele>
        <time>2019-04-18T23:35:33Z</time>
      </trkpt>
      <trkpt lat="51.220096331277" lon="4.468638323688">
        <ele>13</ele>
        <time>2019-04-18T23:35:40Z</time>
      </trkpt>
      <trkpt lat="51.220105635186" lon="4.468335820917">
        <ele>10.4</ele>
        <time>2019-04-18T23:35:47Z</time>
      </trkpt>
      <trkpt lat="51.2201312838" lon="4.468045388082">
        <ele>7.2</ele>
        <time>2019-04-18T23:35:54Z</time>
      </trkpt>
      <trkpt lat="51.220135558569" lon="4.467753446505">
        <ele>6.6</ele>
        <time>2019-04-18T23:36:01Z</time>
      </trkpt>
      <trkpt lat="51.220152741464" lon="4.467459493272">
        <ele>5.6</ele>
        <time>2019-04-18T23:36:08Z</time>
      </trkpt>
      <trkpt lat="51.220150897446" lon="4.467140478158">
        <ele>4</ele>
        <time>2019-04-18T23:36:16Z</time>
      </trkpt>
      <trkpt lat="51.220137234949" lon="4.466844764726">
        <ele>5.2</ele>
        <time>2019-04-18T23:36:23Z</time>
      </trkpt>
      <trkpt lat="51.220127344307" lon="4.466551146769">
        <ele>5.8</ele>
        <time>2019-04-18T23:36:30Z</time>
      </trkpt>
      <trkpt lat="51.220106305738" lon="4.466232634569">
        <ele>5.6</ele>
        <time>2019-04-18T23:36:38Z</time>
      </trkpt>
      <trkpt lat="51.220122398986" lon="4.466100200549">
        <ele>6.2</ele>
        <time>2019-04-18T23:36:42Z</time>
      </trkpt>
      <trkpt lat="51.220159949898" lon="4.466074049021">
        <ele>6.4</ele>
        <time>2019-04-18T23:36:44Z</time>
      </trkpt>
      <trkpt lat="51.220349045562" lon="4.466046891665">
        <ele>4</ele>
        <time>2019-04-18T23:36:52Z</time>
      </trkpt>
      <trkpt lat="51.220545768755" lon="4.466037587756">
        <ele>3</ele>
        <time>2019-04-18T23:37:00Z</time>
      </trkpt>
      <trkpt lat="51.220784904362" lon="4.465999031016">
        <ele>6</ele>
        <time>2019-04-18T23:37:11Z</time>
      </trkpt>
      <trkpt lat="51.220984393582" lon="4.46600791583">
        <ele>7.6</ele>
        <time>2019-04-18T23:37:19Z</time>
      </trkpt>
      <trkpt lat="51.221157563636" lon="4.465952092376">
        <ele>8.8</ele>
        <time>2019-04-18T23:37:26Z</time>
      </trkpt>
      <trkpt lat="51.2212460765" lon="4.4656667725">
        <ele>6.2</ele>
        <time>2019-04-18T23:37:34Z</time>
      </trkpt>
      <trkpt lat="51.221306007085" lon="4.465363180082">
        <ele>4.6</ele>
        <time>2019-04-18T23:37:42Z</time>
      </trkpt>
      <trkpt lat="51.221347246033" lon="4.465080710052">
        <ele>3.8</ele>
        <time>2019-04-18T23:37:49Z</time>
      </trkpt>
      <trkpt lat="51.22138186328" lon="4.464794300529">
        <ele>3.6</ele>
        <time>2019-04-18T23:37:56Z</time>
      </trkpt>
      <trkpt lat="51.221403991496" lon="4.464472603207">
        <ele>5.8</ele>
        <time>2019-04-18T23:38:04Z</time>
      </trkpt>
      <trkpt lat="51.221431065033" lon="4.464161802355">
        <ele>7.4</ele>
        <time>2019-04-18T23:38:11Z</time>
      </trkpt>
      <trkpt lat="51.221454366715" lon="4.463865083095">
        <ele>6.8</ele>
        <time>2019-04-18T23:38:18Z</time>
      </trkpt>
      <trkpt lat="51.221466939565" lon="4.463566184541">
        <ele>6.8</ele>
        <time>2019-04-18T23:38:27Z</time>
      </trkpt>
      <trkpt lat="51.221476494931" lon="4.463264268503">
        <ele>6.4</ele>
        <time>2019-04-18T23:38:35Z</time>
      </trkpt>
      <trkpt lat="51.221492839636" lon="4.462950450167">
        <ele>5</ele>
        <time>2019-04-18T23:38:43Z</time>
      </trkpt>
      <trkpt lat="51.221513710567" lon="4.462661358436">
        <ele>6</ele>
        <time>2019-04-18T23:38:50Z</time>
      </trkpt>
      <trkpt lat="51.221536425516" lon="4.462355586724">
        <ele>7.2</ele>
        <time>2019-04-18T23:38:59Z</time>
      </trkpt>
      <trkpt lat="51.221523852666" lon="4.462069428658">
        <ele>11.4</ele>
        <time>2019-04-18T23:39:06Z</time>
      </trkpt>
      <trkpt lat="51.22151345911" lon="4.461752592838">
        <ele>15.2</ele>
        <time>2019-04-18T23:39:14Z</time>
      </trkpt>
      <trkpt lat="51.221639439067" lon="4.461532903239">
        <ele>14.2</ele>
        <time>2019-04-18T23:39:22Z</time>
      </trkpt>
      <trkpt lat="51.221800790642" lon="4.461372054578">
        <ele>13.8</ele>
        <time>2019-04-18T23:39:29Z</time>
      </trkpt>
      <trkpt lat="51.221956191068" lon="4.461205422406">
        <ele>13.6</ele>
        <time>2019-04-18T23:39:36Z</time>
      </trkpt>
      <trkpt lat="51.222121230679" lon="4.46107684406">
        <ele>11.8</ele>
        <time>2019-04-18T23:39:44Z</time>
      </trkpt>
      <trkpt lat="51.222303956099" lon="4.461016075285">
        <ele>10.4</ele>
        <time>2019-04-18T23:39:53Z</time>
      </trkpt>
      <trkpt lat="51.222418117577" lon="4.461253534512">
        <ele>10.2</ele>
        <time>2019-04-18T23:40:02Z</time>
      </trkpt>
      <trkpt lat="51.22251928711" lon="4.46152024657">
        <ele>7.4</ele>
        <time>2019-04-18T23:40:11Z</time>
      </trkpt>
      <trkpt lat="51.222597406418" lon="4.46179014375">
        <ele>9.2</ele>
        <time>2019-04-18T23:40:19Z</time>
      </trkpt>
      <trkpt lat="51.22265591208" lon="4.462103207715">
        <ele>11.2</ele>
        <time>2019-04-18T23:40:28Z</time>
      </trkpt>
      <trkpt lat="51.222673430251" lon="4.462143524654">
        <ele>11.4</ele>
        <time>2019-04-18T23:40:30Z</time>
      </trkpt>
      <trkpt lat="51.222850455979" lon="4.462082588241">
        <ele>13.8</ele>
        <time>2019-04-18T23:40:41Z</time>
      </trkpt>
      <trkpt lat="51.223039132548" lon="4.461995667938">
        <ele>10.6</ele>
        <time>2019-04-18T23:40:49Z</time>
      </trkpt>
      <trkpt lat="51.223215823" lon="4.46185971352">
        <ele>10.4</ele>
        <time>2019-04-18T23:40:58Z</time>
      </trkpt>
      <trkpt lat="51.223382790448" lon="4.461734739391">
        <ele>11.8</ele>
        <time>2019-04-18T23:41:07Z</time>
      </trkpt>
      <trkpt lat="51.223557133968" lon="4.461593923471">
        <ele>11.4</ele>
        <time>2019-04-18T23:41:18Z</time>
      </trkpt>
      <trkpt lat="51.223728040909" lon="4.461460064528">
        <ele>11.4</ele>
        <time>2019-04-18T23:41:28Z</time>
      </trkpt>
      <trkpt lat="51.223891487959" lon="4.461333497838">
        <ele>9.8</ele>
        <time>2019-04-18T23:41:38Z</time>
      </trkpt>
      <trkpt lat="51.224057952493" lon="4.461175666661">
        <ele>7.4</ele>
        <time>2019-04-18T23:41:48Z</time>
      </trkpt>
      <trkpt lat="51.224233972393" lon="4.461052117455">
        <ele>4.8</ele>
        <time>2019-04-18T23:41:58Z</time>
      </trkpt>
      <trkpt lat="51.224252915487" lon="4.461017667846">
        <ele>2.8</ele>
        <time>2019-04-18T23:41:59Z</time>
      </trkpt>
      <trkpt lat="51.224432371966" lon="4.460894286278">
        <ele>5.4</ele>
        <time>2019-04-18T23:42:07Z</time>
      </trkpt>
      <trkpt lat="51.224609397694" lon="4.460774089832">
        <ele>10</ele>
        <time>2019-04-18T23:42:15Z</time>
      </trkpt>
      <trkpt lat="51.224776281323" lon="4.460661437096">
        <ele>12.6</ele>
        <time>2019-04-18T23:42:23Z</time>
      </trkpt>
      <trkpt lat="51.22495674363" lon="4.460523387203">
        <ele>15.4</ele>
        <time>2019-04-18T23:42:32Z</time>
      </trkpt>
      <trkpt lat="51.225130416598" lon="4.46039623378">
        <ele>16.4</ele>
        <time>2019-04-18T23:42:42Z</time>
      </trkpt>
      <trkpt lat="51.225299228064" lon="4.460277126981">
        <ele>12.2</ele>
        <time>2019-04-18T23:42:49Z</time>
      </trkpt>
      <trkpt lat="51.22547306867" lon="4.460135389052">
        <ele>13.4</ele>
        <time>2019-04-18T23:42:56Z</time>
      </trkpt>
      <trkpt lat="51.225652106054" lon="4.460024496515">
        <ele>14.6</ele>
        <time>2019-04-18T23:43:03Z</time>
      </trkpt>
      <trkpt lat="51.225838435691" lon="4.459909915942">
        <ele>16.6</ele>
        <time>2019-04-18T23:43:10Z</time>
      </trkpt>
      <trkpt lat="51.226037421997" lon="4.459811009522">
        <ele>15.6</ele>
        <time>2019-04-18T23:43:16Z</time>
      </trkpt>
      <trkpt lat="51.226216878476" lon="4.459729202178">
        <ele>12</ele>
        <time>2019-04-18T23:43:23Z</time>
      </trkpt>
      <trkpt lat="51.226399100982" lon="4.459564330205">
        <ele>13.8</ele>
        <time>2019-04-18T23:43:31Z</time>
      </trkpt>
    </trkseg>
  </trk>
</gpx>